Time,TemperatureF,DewpointF,PressureIn,WindDirection,WindDirectionDegrees,WindSpeedMPH,WindSpeedGustMPH,Humidity,HourlyPrecipIn,Conditions,Clouds,dailyrainin,SoftwareType,DateUTC
2013-08-25 00:02:00,-999.0,-99.9,29.96,South,169,0.0,0.0,-999,-99.99,,,-99.99,,2013-08-25 04:02:00,
2013-08-25 00:25:00,77.0,68.0,29.97,South,169,0.0,0.0,74,0.00,,,0.00,,2013-08-25 04:25:00,
2013-08-25 00:54:00,78.0,67.0,29.98,NNE,30,4.0,4.0,70,0.00,,,0.00,,2013-08-25 04:54:00,
2013-08-25 01:22:00,81.0,69.0,29.98,NE,48,1.0,0.0,68,0.00,,,0.00,,2013-08-25 05:22:00,
2013-08-25 01:52:00,79.0,71.0,29.99,North,7,2.0,3.0,76,0.00,,,0.00,,2013-08-25 05:52:00,
2013-08-25 02:22:00,78.0,72.0,29.99,North,350,3.0,4.0,81,0.00,,,0.00,,2013-08-25 06:22:00,
2013-08-25 02:52:00,77.0,71.0,29.99,NNE,17,1.0,0.0,83,0.00,,,0.00,,2013-08-25 06:52:00,
2013-08-25 03:22:00,77.0,72.0,30.00,NNE,17,0.0,0.0,84,0.00,,,0.00,,2013-08-25 07:22:00,
2013-08-25 03:52:00,77.0,72.0,30.00,NNE,17,0.0,0.0,85,0.00,,,0.00,,2013-08-25 07:52:00,
2013-08-25 04:21:00,76.0,71.0,30.01,ENE,69,3.0,3.0,85,0.00,,,0.00,,2013-08-25 08:21:00,
2013-08-25 04:52:00,77.0,72.0,30.01,NE,49,0.0,0.0,84,0.00,,,0.00,,2013-08-25 08:52:00,
2013-08-25 05:22:00,76.0,70.0,30.01,NE,53,0.0,0.0,83,0.00,,,0.00,,2013-08-25 09:22:00,
2013-08-25 05:55:00,74.0,68.0,30.01,ESE,104,0.0,0.0,82,0.00,,,0.00,,2013-08-25 09:55:00,
2013-08-25 06:22:00,73.0,68.0,30.01,ESE,104,0.0,0.0,84,0.00,,,0.00,,2013-08-25 10:22:00,
2013-08-25 06:53:00,73.0,68.0,30.02,ESE,104,0.0,0.0,85,0.00,,,0.00,,2013-08-25 10:53:00,
2013-08-25 07:22:00,72.0,68.0,30.02,ESE,104,0.0,0.0,87,0.00,,,0.00,,2013-08-25 11:22:00,
2013-08-25 07:52:00,71.0,69.0,30.03,ESE,104,0.0,0.0,92,0.00,,,0.00,,2013-08-25 11:52:00,
2013-08-25 08:22:00,70.0,68.0,30.04,ESE,110,3.0,3.0,93,0.00,,,0.00,,2013-08-25 12:22:00,
2013-08-25 08:52:00,70.0,68.0,30.06,ESE,105,0.0,0.0,93,0.00,,,0.00,,2013-08-25 12:52:00,
2013-08-25 09:21:00,75.0,71.0,30.06,ESE,121,0.0,3.0,86,0.00,,,0.00,,2013-08-25 13:21:00,
2013-08-25 13:22:00,94.0,70.0,30.06,ENE,66,0.0,1.0,46,0.00,,,0.00,,2013-08-25 17:22:00,
2013-08-25 13:53:00,97.0,70.0,30.05,SSE,153,0.0,0.0,42,0.00,,,0.00,,2013-08-25 17:53:00,
2013-08-25 14:52:00,94.0,68.0,30.03,ENE,66,6.0,9.0,43,0.00,,,0.00,,2013-08-25 18:52:00,
2013-08-25 15:22:00,97.0,67.0,30.02,SE,124,6.0,12.0,38,0.00,,,0.00,,2013-08-25 19:22:00,
2013-08-25 16:23:00,98.0,64.0,30.00,ENE,65,8.0,11.0,33,0.00,,,0.00,,2013-08-25 20:23:00,
2013-08-25 16:53:00,100.0,65.0,29.98,ENE,73,9.0,11.0,32,0.00,,,0.00,,2013-08-25 20:53:00,
2013-08-25 17:22:00,100.0,66.0,29.98,ESE,108,12.0,12.0,33,0.00,,,0.00,,2013-08-25 21:22:00,
2013-08-25 17:55:00,96.0,65.0,29.96,ENE,72,11.0,12.0,37,0.00,,,0.00,,2013-08-25 21:55:00,
2013-08-25 18:24:00,96.0,65.0,29.96,East,89,7.0,8.0,36,0.00,,,0.00,,2013-08-25 22:24:00,
2013-08-25 18:53:00,96.0,65.0,29.95,SE,138,8.0,8.0,36,0.00,,,0.00,,2013-08-25 22:53:00,
2013-08-25 19:23:00,96.0,64.0,29.94,SE,129,10.0,10.0,35,0.00,,,0.00,,2013-08-25 23:23:00,
2013-08-25 19:53:00,94.0,63.0,29.94,ENE,76,10.0,10.0,36,0.00,,,0.00,,2013-08-25 23:53:00,
2013-08-25 20:22:00,92.0,63.0,29.94,ENE,76,11.0,18.0,39,0.00,,,0.00,,2013-08-26 00:22:00,
2013-08-25 20:52:00,90.0,63.0,29.94,East,83,11.0,11.0,41,0.00,,,0.00,,2013-08-26 00:52:00,
2013-08-25 21:11:00,89.0,64.0,29.94,ESE,107,11.0,11.0,43,0.00,,,0.00,,2013-08-26 01:11:00,
2013-08-25 21:22:00,88.0,63.0,29.95,ESE,117,8.0,11.0,44,0.00,,,0.00,,2013-08-26 01:22:00,
2013-08-25 21:42:00,87.0,64.0,29.96,ESE,110,8.0,11.0,46,0.00,,,0.00,,2013-08-26 01:42:00,
2013-08-25 21:52:00,86.0,63.0,29.96,East,100,8.0,8.0,47,0.00,,,0.00,,2013-08-26 01:52:00,
2013-08-25 22:22:00,84.0,63.0,29.98,ESE,104,8.0,8.0,49,0.00,,,0.00,,2013-08-26 02:22:00,
2013-08-25 22:52:00,82.0,64.0,29.99,ESE,117,4.0,5.0,54,0.00,,,0.00,,2013-08-26 02:52:00,
2013-08-25 23:22:00,81.0,65.0,30.01,ESE,113,5.0,5.0,58,0.00,,,0.00,,2013-08-26 03:22:00,
2013-08-25 23:56:00,79.0,65.0,30.02,ESE,110,4.0,5.0,62,0.00,,,0.00,,2013-08-26 03:56:00,